createdAt,value
2023-07-11T00:00:35.243Z,1009.65
2023-07-11T00:01:35.224Z,1009.70
2023-07-11T00:02:35.194Z,1009.68
2023-07-11T00:03:35.193Z,1009.70
2023-07-11T00:04:56.140Z,1009.67
2023-07-11T00:05:35.118Z,1009.70
2023-07-11T00:06:35.091Z,1009.68
2023-07-11T00:07:35.043Z,1009.68
2023-07-11T00:08:35.014Z,1009.68
2023-07-11T00:09:34.980Z,1009.66
2023-07-11T00:10:55.951Z,1009.61
2023-07-11T00:11:34.924Z,1009.67
2023-07-11T00:12:34.899Z,1009.69
2023-07-11T00:13:34.885Z,1009.65
2023-07-11T00:14:34.849Z,1009.64
2023-07-11T00:15:34.817Z,1009.66
2023-07-11T00:16:55.862Z,1009.68
2023-07-11T00:17:34.785Z,1009.67
2023-07-11T00:18:34.730Z,1009.71
2023-07-11T00:19:34.702Z,1009.71
2023-07-11T00:20:34.662Z,1009.70
2023-07-11T00:21:34.652Z,1009.71
2023-07-11T00:22:55.605Z,1009.68
2023-07-11T00:23:34.608Z,1009.68
2023-07-11T00:24:34.562Z,1009.67
2023-07-11T00:25:34.533Z,1009.65
2023-07-11T00:26:34.490Z,1009.64
2023-07-11T00:27:34.470Z,1009.63
2023-07-11T00:28:55.431Z,1009.61
2023-07-11T00:29:34.418Z,1009.61
2023-07-11T00:30:34.412Z,1009.58
2023-07-11T00:31:34.450Z,1009.57
2023-07-11T00:32:34.366Z,1009.57
2023-07-11T00:33:34.295Z,1009.51
2023-07-11T00:34:55.258Z,1009.52
2023-07-11T00:35:34.239Z,1009.47
2023-07-11T00:36:34.202Z,1009.50
2023-07-11T00:37:34.168Z,1009.51
2023-07-11T00:38:34.162Z,1009.53
2023-07-11T00:39:34.134Z,1009.54
2023-07-11T00:40:55.085Z,1009.52
2023-07-11T00:41:34.072Z,1009.54
2023-07-11T00:42:34.025Z,1009.50
2023-07-11T00:43:34.011Z,1009.48
2023-07-11T00:44:33.986Z,1009.49
2023-07-11T00:45:33.956Z,1009.47
2023-07-11T00:46:54.955Z,1009.47
2023-07-11T00:47:33.922Z,1009.48
2023-07-11T00:48:33.873Z,1009.46
2023-07-11T00:49:33.833Z,1009.47
2023-07-11T00:50:33.808Z,1009.46
2023-07-11T00:51:33.766Z,1009.49
2023-07-11T00:52:54.760Z,1009.47
2023-07-11T00:53:33.712Z,1009.47
2023-07-11T00:54:33.690Z,1009.47
2023-07-11T00:55:33.668Z,1009.42
2023-07-11T00:56:33.620Z,1009.46
2023-07-11T00:57:33.612Z,1009.40
2023-07-11T00:58:54.568Z,1009.38
2023-07-11T00:59:33.546Z,1009.43
2023-07-11T01:00:33.532Z,1009.42
2023-07-11T01:01:33.478Z,1009.47
2023-07-11T01:02:33.499Z,1009.45
2023-07-11T01:03:33.556Z,1009.44
2023-07-11T01:04:54.384Z,1009.42
2023-07-11T01:05:33.360Z,1009.42
2023-07-11T01:06:33.332Z,1009.36
2023-07-11T01:07:33.311Z,1009.34
2023-07-11T01:08:33.280Z,1009.37
2023-07-11T01:09:33.254Z,1009.32
2023-07-11T01:10:54.829Z,1009.32
2023-07-11T01:11:33.231Z,1009.32
2023-07-11T01:12:33.151Z,1009.34
2023-07-11T01:13:33.166Z,1009.32
2023-07-11T01:14:33.154Z,1009.26
2023-07-11T01:15:33.080Z,1009.27
2023-07-11T01:16:54.126Z,1009.29
2023-07-11T01:17:33.045Z,1009.23
2023-07-11T01:18:32.992Z,1009.25
2023-07-11T01:19:32.955Z,1009.23
2023-07-11T01:20:32.915Z,1009.19
2023-07-11T01:21:32.894Z,1009.20
2023-07-11T01:22:53.861Z,1009.15
2023-07-11T01:23:32.838Z,1009.18
2023-07-11T01:24:32.807Z,1009.16
2023-07-11T01:25:32.780Z,1009.13
2023-07-11T01:26:32.745Z,1009.12
2023-07-11T01:27:32.731Z,1009.07
2023-07-11T01:28:53.677Z,1009.13
2023-07-11T01:29:32.665Z,1009.11
2023-07-11T01:30:32.673Z,1009.12
2023-07-11T01:31:32.610Z,1009.11
2023-07-11T01:32:32.582Z,1009.10
2023-07-11T01:33:32.547Z,1009.05
2023-07-11T01:34:53.507Z,1009.04
2023-07-11T01:35:32.486Z,1009.07
2023-07-11T01:36:32.474Z,1009.05
2023-07-11T01:37:32.428Z,1009.06
2023-07-11T01:38:32.383Z,1009.05
2023-07-11T01:39:32.374Z,1009.05
2023-07-11T01:40:53.331Z,1009.00
2023-07-11T01:41:32.311Z,1008.99
2023-07-11T01:42:32.284Z,1008.96
2023-07-11T01:43:32.254Z,1009.01
2023-07-11T01:44:32.213Z,1009.03
2023-07-11T01:45:32.192Z,1008.94
2023-07-11T01:46:53.163Z,1008.95
2023-07-11T01:47:32.149Z,1008.96
2023-07-11T01:48:32.096Z,1008.92
2023-07-11T01:49:32.066Z,1008.93
2023-07-11T01:50:32.034Z,1008.94
2023-07-11T01:51:32.248Z,1008.88
2023-07-11T01:52:52.970Z,1008.85
2023-07-11T01:53:31.971Z,1008.90
2023-07-11T01:54:31.928Z,1008.84
2023-07-11T01:55:31.894Z,1008.91
2023-07-11T01:56:31.844Z,1008.88
2023-07-11T01:57:31.840Z,1008.89
2023-07-11T01:58:52.785Z,1008.86
2023-07-11T01:59:31.755Z,1008.85
2023-07-11T02:00:31.725Z,1008.86
2023-07-11T02:01:31.760Z,1008.85
2023-07-11T02:02:31.734Z,1008.87
2023-07-11T02:03:31.720Z,1008.83
2023-07-11T02:04:52.626Z,1008.83
2023-07-11T02:05:31.593Z,1008.85
2023-07-11T02:06:31.575Z,1008.81
2023-07-11T02:07:31.541Z,1008.83
2023-07-11T02:08:31.522Z,1008.80
2023-07-11T02:09:31.484Z,1008.84
2023-07-11T02:10:52.466Z,1008.82
2023-07-11T02:11:31.416Z,1008.82
2023-07-11T02:12:31.393Z,1008.84
2023-07-11T02:13:31.399Z,1008.79
2023-07-11T02:14:31.321Z,1008.81
2023-07-11T02:15:31.309Z,1008.77
2023-07-11T02:16:52.421Z,1008.77
2023-07-11T02:17:31.417Z,1008.71
2023-07-11T02:18:31.227Z,1008.73
2023-07-11T02:19:31.182Z,1008.73
2023-07-11T02:20:31.156Z,1008.77
2023-07-11T02:21:31.130Z,1008.76
2023-07-11T02:22:52.082Z,1008.74
2023-07-11T02:23:31.123Z,1008.75
2023-07-11T02:24:31.036Z,1008.74
2023-07-11T02:25:31.018Z,1008.73
2023-07-11T02:26:30.986Z,1008.66
2023-07-11T02:27:31.060Z,1008.69
2023-07-11T02:28:51.907Z,1008.66
2023-07-11T02:29:30.906Z,1008.64
2023-07-11T02:30:30.853Z,1008.64
2023-07-11T02:31:30.847Z,1008.62
2023-07-11T02:32:30.832Z,1008.63
2023-07-11T02:33:30.771Z,1008.62
2023-07-11T02:34:51.747Z,1008.59
2023-07-11T02:35:30.715Z,1008.61
2023-07-11T02:36:30.683Z,1008.54
2023-07-11T02:37:30.649Z,1008.60
2023-07-11T02:38:30.611Z,1008.59
2023-07-11T02:39:30.606Z,1008.60
2023-07-11T02:40:51.563Z,1008.62
2023-07-11T02:41:30.558Z,1008.59
2023-07-11T02:42:30.495Z,1008.57
2023-07-11T02:43:30.482Z,1008.55
2023-07-11T02:44:30.439Z,1008.56
2023-07-11T02:45:30.417Z,1008.55
2023-07-11T02:46:51.380Z,1008.51
2023-07-11T02:47:30.416Z,1008.52
2023-07-11T02:48:30.375Z,1008.46
2023-07-11T02:49:30.296Z,1008.47
2023-07-11T02:50:30.269Z,1008.45
2023-07-11T02:51:30.234Z,1008.44
2023-07-11T02:52:51.194Z,1008.46
2023-07-11T02:53:30.167Z,1008.48
2023-07-11T02:54:30.142Z,1008.46
2023-07-11T02:55:30.121Z,1008.48
2023-07-11T02:56:30.094Z,1008.49
2023-07-11T02:57:30.061Z,1008.42
2023-07-11T02:58:51.038Z,1008.44
2023-07-11T02:59:30.002Z,1008.42
2023-07-11T03:00:29.956Z,1008.42
2023-07-11T03:01:29.975Z,1008.38
2023-07-11T03:02:29.917Z,1008.41
2023-07-11T03:03:29.880Z,1008.39
2023-07-11T03:04:50.860Z,1008.42
2023-07-11T03:05:29.956Z,1008.41
2023-07-11T03:06:29.789Z,1008.40
2023-07-11T03:07:29.756Z,1008.42
2023-07-11T03:08:29.731Z,1008.46
2023-07-11T03:09:29.702Z,1008.40
2023-07-11T03:10:50.670Z,1008.41
2023-07-11T03:11:29.638Z,1008.39
2023-07-11T03:12:29.603Z,1008.37
2023-07-11T03:13:29.647Z,1008.35
2023-07-11T03:14:29.554Z,1008.33
2023-07-11T03:15:29.532Z,1008.35
2023-07-11T03:16:50.562Z,1008.35
2023-07-11T03:17:29.460Z,1008.37
2023-07-11T03:18:29.446Z,1008.32
2023-07-11T03:19:29.406Z,1008.32
2023-07-11T03:20:29.366Z,1008.32
2023-07-11T03:21:29.354Z,1008.29
2023-07-11T03:22:50.308Z,1008.30
2023-07-11T03:23:29.341Z,1008.28
2023-07-11T03:24:29.242Z,1008.29
2023-07-11T03:25:29.227Z,1008.29
2023-07-11T03:26:29.191Z,1008.28
2023-07-11T03:27:29.161Z,1008.31
2023-07-11T03:28:50.146Z,1008.26
2023-07-11T03:29:29.112Z,1008.24
2023-07-11T03:30:29.100Z,1008.23
2023-07-11T03:31:29.143Z,1008.23
2023-07-11T03:32:29.061Z,1008.24
2023-07-11T03:33:28.991Z,1008.26
2023-07-11T03:34:57.973Z,1008.24
2023-07-11T03:35:28.925Z,1008.27
2023-07-11T03:36:28.893Z,1008.28
2023-07-11T03:37:28.866Z,1008.24
2023-07-11T03:38:28.843Z,1008.21
2023-07-11T03:39:28.817Z,1008.23
2023-07-11T03:40:49.778Z,1008.19
2023-07-11T03:41:28.752Z,1008.22
2023-07-11T03:42:28.733Z,1008.23
2023-07-11T03:43:28.685Z,1008.21
2023-07-11T03:44:28.650Z,1008.21
2023-07-11T03:45:28.627Z,1008.18
2023-07-11T03:46:49.603Z,1008.18
2023-07-11T03:47:28.581Z,1008.20
2023-07-11T03:48:28.542Z,1008.25
2023-07-11T03:49:28.501Z,1008.24
2023-07-11T03:50:28.496Z,1008.20
2023-07-11T03:51:28.445Z,1008.15
2023-07-11T03:52:49.431Z,1008.17
2023-07-11T03:53:28.395Z,1008.17
2023-07-11T03:54:28.378Z,1008.18
2023-07-11T03:55:28.326Z,1008.14
2023-07-11T03:56:28.381Z,1008.16
2023-07-11T03:57:28.264Z,1008.13
2023-07-11T03:58:49.244Z,1008.15
2023-07-11T03:59:28.209Z,1008.14
2023-07-11T04:00:28.201Z,1008.11
2023-07-11T04:01:28.208Z,1008.15
2023-07-11T04:02:28.159Z,1008.14
2023-07-11T04:03:28.170Z,1008.09
2023-07-11T04:04:49.057Z,1008.16
2023-07-11T04:05:28.030Z,1008.15
2023-07-11T04:06:28.000Z,1008.11
2023-07-11T04:07:27.976Z,1008.10
2023-07-11T04:08:27.949Z,1008.14
2023-07-11T04:09:27.924Z,1008.10
2023-07-11T04:10:48.878Z,1008.07
2023-07-11T04:11:27.871Z,1008.06
2023-07-11T04:12:27.821Z,1008.05
2023-07-11T04:13:27.825Z,1008.01
2023-07-11T04:14:27.772Z,1008.02
2023-07-11T04:15:27.728Z,1008.06
2023-07-11T04:16:48.810Z,1008.08
2023-07-11T04:17:27.668Z,1008.10
2023-07-11T04:18:27.641Z,1008.09
2023-07-11T04:19:27.590Z,1008.07
2023-07-11T04:20:27.588Z,1008.07
2023-07-11T04:21:27.558Z,1008.05
2023-07-11T04:22:48.523Z,1008.03
2023-07-11T04:23:27.488Z,1008.02
2023-07-11T04:24:28.375Z,1008.01
2023-07-11T04:25:27.428Z,1008.01
2023-07-11T04:26:27.414Z,1008.00
2023-07-11T04:27:27.393Z,1008.00
2023-07-11T04:28:48.349Z,1007.98
2023-07-11T04:29:27.313Z,1007.94
2023-07-11T04:30:27.302Z,1007.97
2023-07-11T04:31:27.290Z,1007.95
2023-07-11T04:32:27.242Z,1007.95
2023-07-11T04:33:27.209Z,1007.94
2023-07-11T04:34:48.169Z,1007.94
2023-07-11T04:35:27.133Z,1007.92
2023-07-11T04:36:27.132Z,1007.94
2023-07-11T04:37:27.082Z,1007.94
2023-07-11T04:38:27.045Z,1007.91
2023-07-11T04:39:27.055Z,1007.89
2023-07-11T04:40:47.987Z,1007.90
2023-07-11T04:41:26.958Z,1007.88
2023-07-11T04:42:26.925Z,1007.88
2023-07-11T04:43:26.890Z,1007.88
2023-07-11T04:44:26.872Z,1007.89
2023-07-11T04:45:26.850Z,1007.89
2023-07-11T04:46:47.851Z,1007.91
2023-07-11T04:47:26.815Z,1007.89
2023-07-11T04:48:26.775Z,1007.86
2023-07-11T04:49:26.763Z,1007.87
2023-07-11T04:50:26.681Z,1007.88
2023-07-11T04:51:26.679Z,1007.83
2023-07-11T04:52:47.636Z,1007.85
2023-07-11T04:53:26.598Z,1007.83
2023-07-11T04:54:27.331Z,1007.82
2023-07-11T04:55:26.541Z,1007.84
2023-07-11T04:56:26.507Z,1007.78
2023-07-11T04:57:26.472Z,1007.82
2023-07-11T04:58:47.453Z,1007.78
2023-07-11T04:59:26.433Z,1007.81
2023-07-11T05:00:26.388Z,1007.80
2023-07-11T05:01:26.407Z,1007.82
2023-07-11T05:02:26.344Z,1007.78
2023-07-11T05:03:26.330Z,1007.77
2023-07-11T05:04:47.267Z,1007.79
2023-07-11T05:05:26.241Z,1007.79
2023-07-11T05:06:26.237Z,1007.78
2023-07-11T05:07:26.190Z,1007.77
2023-07-11T05:08:26.172Z,1007.78
2023-07-11T05:09:26.117Z,1007.76
2023-07-11T05:10:47.087Z,1007.78
2023-07-11T05:11:26.052Z,1007.72
2023-07-11T05:12:26.050Z,1007.75
2023-07-11T05:13:26.006Z,1007.73
2023-07-11T05:14:25.975Z,1007.75
2023-07-11T05:15:25.981Z,1007.72
2023-07-11T05:16:46.958Z,1007.74
2023-07-11T05:17:25.982Z,1007.72
2023-07-11T05:18:25.853Z,1007.73
2023-07-11T05:19:25.830Z,1007.70
2023-07-11T05:20:25.799Z,1007.71
2023-07-11T05:21:25.771Z,1007.70
2023-07-11T05:22:46.722Z,1007.66
2023-07-11T05:23:25.711Z,1007.64
2023-07-11T05:24:25.678Z,1007.62
2023-07-11T05:25:25.652Z,1007.66
2023-07-11T05:26:25.635Z,1007.64
2023-07-11T05:27:25.571Z,1007.63
2023-07-11T05:28:46.583Z,1007.63
2023-07-11T05:29:25.542Z,1007.61
2023-07-11T05:30:25.521Z,1007.59
2023-07-11T05:31:25.479Z,1007.57
2023-07-11T05:32:25.442Z,1007.57
2023-07-11T05:33:25.418Z,1007.51
2023-07-11T05:34:46.370Z,1007.55
2023-07-11T05:35:25.368Z,1007.51
2023-07-11T05:36:25.327Z,1007.52
2023-07-11T05:37:25.302Z,1007.50
2023-07-11T05:38:25.262Z,1007.52
2023-07-11T05:39:25.229Z,1007.51
2023-07-11T05:40:46.212Z,1007.49
2023-07-11T05:41:25.182Z,1007.51
2023-07-11T05:42:25.156Z,1007.49
2023-07-11T05:43:25.115Z,1007.44
2023-07-11T05:44:25.092Z,1007.48
2023-07-11T05:45:25.067Z,1007.49
2023-07-11T05:46:48.161Z,1007.46
2023-07-11T05:47:25.035Z,1007.50
2023-07-11T05:48:24.967Z,1007.46
2023-07-11T05:49:24.935Z,1007.45
2023-07-11T05:50:24.924Z,1007.49
2023-07-11T05:51:24.903Z,1007.50
2023-07-11T05:52:45.863Z,1007.47
2023-07-11T05:53:26.185Z,1007.45
2023-07-11T05:54:24.785Z,1007.46
2023-07-11T05:55:24.759Z,1007.44
2023-07-11T05:56:24.750Z,1007.44
2023-07-11T05:57:24.702Z,1007.38
2023-07-11T05:58:45.677Z,1007.46
2023-07-11T05:59:24.651Z,1007.44
2023-07-11T06:00:24.622Z,1007.43
2023-07-11T06:01:24.601Z,1007.41
2023-07-11T06:02:24.612Z,1007.39
2023-07-11T06:03:24.545Z,1007.40
2023-07-11T06:04:45.493Z,1007.36
2023-07-11T06:05:24.468Z,1007.38
2023-07-11T06:06:24.453Z,1007.31
2023-07-11T06:07:24.421Z,1007.31
2023-07-11T06:08:24.386Z,1007.25
2023-07-11T06:09:24.349Z,1007.29
2023-07-11T06:10:45.346Z,1007.27
2023-07-11T06:11:24.290Z,1007.23
2023-07-11T06:12:24.265Z,1007.23
2023-07-11T06:13:24.242Z,1007.22
2023-07-11T06:14:24.350Z,1007.22
2023-07-11T06:15:24.171Z,1007.19
2023-07-11T06:16:46.354Z,1007.17
2023-07-11T06:17:24.145Z,1007.21
2023-07-11T06:18:24.109Z,1007.15
2023-07-11T06:19:24.056Z,1007.18
2023-07-11T06:20:24.029Z,1007.14
2023-07-11T06:21:24.009Z,1007.09
2023-07-11T06:22:44.973Z,1007.13
2023-07-11T06:23:23.949Z,1007.07
2023-07-11T06:24:23.917Z,1007.09
2023-07-11T06:25:23.896Z,1007.02
2023-07-11T06:26:23.869Z,1007.01
2023-07-11T06:27:23.830Z,1007.06
2023-07-11T06:28:44.868Z,1007.05
2023-07-11T06:29:23.778Z,1007.01
2023-07-11T06:30:23.763Z,1007.00
2023-07-11T06:31:23.757Z,1007.01
2023-07-11T06:32:23.716Z,1006.99
2023-07-11T06:33:23.657Z,1006.97
2023-07-11T06:34:44.650Z,1006.99
2023-07-11T06:35:23.604Z,1006.99
2023-07-11T06:36:23.575Z,1007.00
2023-07-11T06:37:23.536Z,1006.98
2023-07-11T06:38:23.508Z,1007.05
2023-07-11T06:39:23.485Z,1007.02
2023-07-11T06:40:44.447Z,1007.02
2023-07-11T06:41:23.459Z,1007.00
2023-07-11T06:42:23.396Z,1007.01
2023-07-11T06:43:23.371Z,1007.00
2023-07-11T06:44:23.380Z,1006.98
2023-07-11T06:45:23.346Z,1006.96
2023-07-11T06:46:44.286Z,1006.95
2023-07-11T06:47:23.250Z,1006.90
2023-07-11T06:48:23.246Z,1006.91
2023-07-11T06:49:23.251Z,1006.91
2023-07-11T06:50:24.214Z,1006.85
2023-07-11T06:51:23.137Z,1006.82
2023-07-11T06:52:44.108Z,1006.84
2023-07-11T06:53:23.076Z,1006.82
2023-07-11T06:54:23.069Z,1006.83
2023-07-11T06:55:23.021Z,1006.84
2023-07-11T06:56:23.008Z,1006.87
2023-07-11T06:57:22.974Z,1006.84
2023-07-11T06:58:43.946Z,1006.83
2023-07-11T06:59:22.919Z,1006.85
2023-07-11T07:00:22.884Z,1006.84
2023-07-11T07:01:35.268Z,1006.84
2023-07-11T07:02:22.972Z,1006.79
2023-07-11T07:03:22.898Z,1006.82
2023-07-11T07:04:43.776Z,1006.83
2023-07-11T07:05:22.748Z,1006.77
2023-07-11T07:06:22.727Z,1006.74
2023-07-11T07:07:22.709Z,1006.73
2023-07-11T07:08:22.668Z,1006.70
2023-07-11T07:09:23.488Z,1006.72
2023-07-11T07:10:43.602Z,1006.74
2023-07-11T07:11:22.665Z,1006.74
2023-07-11T07:12:22.593Z,1006.74
2023-07-11T07:13:22.605Z,1006.74
2023-07-11T07:14:22.612Z,1006.73
2023-07-11T07:15:22.450Z,1006.74
2023-07-11T07:16:43.474Z,1006.68
2023-07-11T07:17:22.599Z,1006.74
2023-07-11T07:18:22.387Z,1006.75
2023-07-11T07:19:22.370Z,1006.72
2023-07-11T07:20:22.340Z,1006.72
2023-07-11T07:21:22.304Z,1006.71
2023-07-11T07:22:43.268Z,1006.71
2023-07-11T07:23:22.241Z,1006.71
2023-07-11T07:24:22.203Z,1006.70
2023-07-11T07:25:26.554Z,1006.71
2023-07-11T07:26:22.153Z,1006.71
2023-07-11T07:27:28.408Z,1006.72
2023-07-11T07:28:43.104Z,1006.70
2023-07-11T07:29:22.065Z,1006.71
2023-07-11T07:30:22.052Z,1006.66
2023-07-11T07:31:22.064Z,1006.71
2023-07-11T07:32:22.004Z,1006.69
2023-07-11T07:33:21.990Z,1006.70
2023-07-11T07:34:42.958Z,1006.71
2023-07-11T07:35:21.923Z,1006.72
2023-07-11T07:36:21.887Z,1006.65
2023-07-11T07:37:21.861Z,1006.63
2023-07-11T07:38:21.826Z,1006.63
2023-07-11T07:39:21.792Z,1006.61
2023-07-11T07:40:42.819Z,1006.58
2023-07-11T07:41:21.769Z,1006.58
2023-07-11T07:42:21.719Z,1006.57
2023-07-11T07:43:21.709Z,1006.61
2023-07-11T07:44:21.715Z,1006.59
2023-07-11T07:45:21.662Z,1006.59
2023-07-11T07:46:42.673Z,1006.58
2023-07-11T07:47:21.636Z,1006.61
2023-07-11T07:48:21.559Z,1006.54
2023-07-11T07:49:21.549Z,1006.57
2023-07-11T07:50:21.514Z,1006.55
2023-07-11T07:51:21.481Z,1006.50
2023-07-11T07:52:42.447Z,1006.50
2023-07-11T07:53:21.438Z,1006.48
2023-07-11T07:54:21.415Z,1006.48
2023-07-11T07:55:21.364Z,1006.46
2023-07-11T07:56:21.366Z,1006.49
2023-07-11T07:57:21.335Z,1006.45
2023-07-11T07:58:44.014Z,1006.46
2023-07-11T07:59:21.261Z,1006.48
2023-07-11T08:00:21.244Z,1006.44
2023-07-11T08:01:21.213Z,1006.36
2023-07-11T08:02:21.219Z,1006.41
2023-07-11T08:03:21.273Z,1006.32
2023-07-11T08:04:42.225Z,1006.35
2023-07-11T08:05:21.112Z,1006.35
2023-07-11T08:06:21.136Z,1006.34
2023-07-11T08:07:21.048Z,1006.35
2023-07-11T08:08:22.512Z,1006.39
2023-07-11T08:09:20.999Z,1006.43
2023-07-11T08:10:41.973Z,1006.36
2023-07-11T08:11:20.962Z,1006.37
2023-07-11T08:12:20.911Z,1006.34
2023-07-11T08:13:20.891Z,1006.32
2023-07-11T08:14:20.883Z,1006.38
2023-07-11T08:15:20.840Z,1006.34
2023-07-11T08:16:41.854Z,1006.31
2023-07-11T08:17:20.877Z,1006.33
2023-07-11T08:18:20.784Z,1006.31
2023-07-11T08:19:20.726Z,1006.26
2023-07-11T08:20:20.704Z,1006.28
2023-07-11T08:21:20.696Z,1006.29
2023-07-11T08:22:41.666Z,1006.28
2023-07-11T08:23:20.631Z,1006.26
2023-07-11T08:24:20.646Z,1006.29
2023-07-11T08:25:20.583Z,1006.37
2023-07-11T08:26:20.550Z,1006.28
2023-07-11T08:27:20.540Z,1006.25
2023-07-11T08:28:41.501Z,1006.26
2023-07-11T08:29:29.763Z,1006.26
2023-07-11T08:30:20.440Z,1006.26
2023-07-11T08:31:20.518Z,1006.24
2023-07-11T08:32:20.448Z,1006.25
2023-07-11T08:33:20.399Z,1006.20
2023-07-11T08:34:41.383Z,1006.23
2023-07-11T08:35:20.315Z,1006.22
2023-07-11T08:36:20.317Z,1006.21
2023-07-11T08:37:20.263Z,1006.19
2023-07-11T08:38:20.233Z,1006.23
2023-07-11T08:39:20.212Z,1006.19
2023-07-11T08:40:48.193Z,1006.22
2023-07-11T08:41:20.167Z,1006.18
2023-07-11T08:42:20.220Z,1006.16
2023-07-11T08:43:20.146Z,1006.16
2023-07-11T08:44:20.093Z,1006.14
2023-07-11T08:45:20.062Z,1006.18
2023-07-11T08:46:41.058Z,1006.13
2023-07-11T08:47:20.001Z,1006.12
2023-07-11T08:48:20.564Z,1006.07
2023-07-11T08:49:19.952Z,1006.08
2023-07-11T08:50:19.965Z,1006.06
2023-07-11T08:51:19.933Z,1006.03
2023-07-11T08:52:40.878Z,1006.05
2023-07-11T08:53:19.851Z,1006.03
2023-07-11T08:54:22.123Z,1006.08
2023-07-11T08:55:19.853Z,1006.04
2023-07-11T08:56:19.795Z,1006.05
2023-07-11T08:57:19.750Z,1005.99
2023-07-11T08:58:40.726Z,1005.92
2023-07-11T08:59:19.684Z,1005.97
2023-07-11T09:00:19.696Z,1006.01
2023-07-11T09:01:19.650Z,1005.94
2023-07-11T09:02:19.617Z,1005.95
2023-07-11T09:03:19.638Z,1006.00
2023-07-11T09:04:40.564Z,1005.98
2023-07-11T09:05:19.529Z,1005.95
2023-07-11T09:06:19.504Z,1005.97
2023-07-11T09:07:19.489Z,1005.93
2023-07-11T09:08:19.461Z,1005.91
2023-07-11T09:09:19.429Z,1005.86
2023-07-11T09:10:48.625Z,1005.88
2023-07-11T09:11:19.388Z,1005.83
2023-07-11T09:12:19.357Z,1005.87
2023-07-11T09:13:19.323Z,1005.89
2023-07-11T09:14:19.380Z,1005.86
2023-07-11T09:15:19.278Z,1005.88
2023-07-11T09:16:40.315Z,1005.82
2023-07-11T09:17:19.257Z,1005.78
2023-07-11T09:18:19.207Z,1005.77
2023-07-11T09:19:19.191Z,1005.77
2023-07-11T09:20:19.158Z,1005.75
2023-07-11T09:21:19.173Z,1005.70
2023-07-11T09:22:40.099Z,1005.73
2023-07-11T09:23:37.112Z,1005.76
2023-07-11T09:24:22.202Z,1005.74
2023-07-11T09:25:19.028Z,1005.71
2023-07-11T09:26:19.022Z,1005.72
2023-07-11T09:27:18.996Z,1005.65
2023-07-11T09:28:39.958Z,1005.65
2023-07-11T09:29:18.923Z,1005.69
2023-07-11T09:30:18.954Z,1005.57
2023-07-11T09:31:18.957Z,1005.62
2023-07-11T09:32:19.114Z,1005.62
2023-07-11T09:33:18.915Z,1005.61
2023-07-11T09:34:39.797Z,1005.55
2023-07-11T09:35:18.772Z,1005.57
2023-07-11T09:36:18.748Z,1005.61
2023-07-11T09:37:18.745Z,1005.55
2023-07-11T09:38:18.706Z,1005.61
2023-07-11T09:39:18.674Z,1005.58
2023-07-11T09:40:39.660Z,1005.59
2023-07-11T09:41:18.629Z,1005.60
2023-07-11T09:42:18.614Z,1005.57
2023-07-11T09:43:18.573Z,1005.52
2023-07-11T09:44:18.561Z,1005.53
2023-07-11T09:45:18.531Z,1005.51
2023-07-11T09:46:39.573Z,1005.49
2023-07-11T09:47:18.487Z,1005.50
2023-07-11T09:48:18.487Z,1005.45
2023-07-11T09:49:18.421Z,1005.50
2023-07-11T09:50:25.855Z,1005.48
2023-07-11T09:51:18.391Z,1005.44
2023-07-11T09:52:39.344Z,1005.42
2023-07-11T09:53:18.327Z,1005.42
2023-07-11T09:54:18.298Z,1005.43
2023-07-11T09:55:18.275Z,1005.39
2023-07-11T09:56:18.589Z,1005.40
2023-07-11T09:57:18.214Z,1005.38
2023-07-11T09:58:39.252Z,1005.34
2023-07-11T09:59:18.176Z,1005.39
2023-07-11T10:00:22.602Z,1005.38
2023-07-11T10:01:18.191Z,1005.36
2023-07-11T10:02:18.101Z,1005.34
2023-07-11T10:03:18.074Z,1005.28
2023-07-11T10:04:39.081Z,1005.28
2023-07-11T10:05:18.033Z,1005.26
2023-07-11T10:06:18.745Z,1005.30
2023-07-11T10:07:17.966Z,1005.30
2023-07-11T10:08:17.956Z,1005.34
2023-07-11T10:09:17.944Z,1005.37
2023-07-11T10:10:38.894Z,1005.28
2023-07-11T10:11:17.895Z,1005.30
2023-07-11T10:12:17.859Z,1005.25
2023-07-11T10:13:25.801Z,1005.25
2023-07-11T10:14:17.851Z,1005.26
2023-07-11T10:15:17.771Z,1005.19
2023-07-11T10:16:38.800Z,1005.21
2023-07-11T10:17:17.769Z,1005.17
2023-07-11T10:18:17.754Z,1005.18
2023-07-11T10:19:17.662Z,1005.19
2023-07-11T10:20:19.403Z,1005.23
2023-07-11T10:21:19.688Z,1005.17
2023-07-11T10:22:38.619Z,1005.14
2023-07-11T10:23:17.619Z,1005.12
2023-07-11T10:24:17.551Z,1005.14
2023-07-11T10:25:17.524Z,1005.14
2023-07-11T10:26:17.530Z,1005.13
2023-07-11T10:27:17.486Z,1005.14
2023-07-11T10:28:38.474Z,1005.11
2023-07-11T10:29:25.106Z,1005.09
2023-07-11T10:30:17.403Z,1005.06
2023-07-11T10:31:17.418Z,1005.05
2023-07-11T10:32:17.356Z,1005.08
2023-07-11T10:33:21.623Z,1005.09
2023-07-11T10:34:38.346Z,1005.08
2023-07-11T10:35:17.281Z,1005.11
2023-07-11T10:36:17.257Z,1005.09
2023-07-11T10:37:17.234Z,1005.03
2023-07-11T10:38:17.382Z,1004.99
2023-07-11T10:39:17.187Z,1004.99
2023-07-11T10:40:38.172Z,1004.98
2023-07-11T10:41:17.126Z,1004.99
2023-07-11T10:42:17.117Z,1004.93
2023-07-11T10:43:17.093Z,1004.93
2023-07-11T10:44:17.074Z,1004.88
2023-07-11T10:45:17.044Z,1004.94
2023-07-11T10:46:38.106Z,1004.92
2023-07-11T10:47:16.990Z,1004.93
2023-07-11T10:48:16.971Z,1004.90
2023-07-11T10:49:16.985Z,1004.90
2023-07-11T10:50:16.968Z,1004.89
2023-07-11T10:51:16.908Z,1004.91
2023-07-11T10:52:37.883Z,1004.84
2023-07-11T10:53:16.841Z,1004.83
2023-07-11T10:54:16.895Z,1004.79
2023-07-11T10:55:16.829Z,1004.82
2023-07-11T10:56:16.769Z,1004.77
2023-07-11T10:57:20.143Z,1004.77
2023-07-11T10:58:37.745Z,1004.75
2023-07-11T10:59:16.709Z,1004.77
2023-07-11T11:00:16.708Z,1004.77
2023-07-11T11:01:16.724Z,1004.75
2023-07-11T11:02:16.709Z,1004.75
2023-07-11T11:03:16.704Z,1004.74
2023-07-11T11:04:37.591Z,1004.68
2023-07-11T11:05:16.593Z,1004.64
2023-07-11T11:06:16.566Z,1004.65
2023-07-11T11:07:16.525Z,1004.64
2023-07-11T11:08:16.524Z,1004.63
2023-07-11T11:09:16.522Z,1004.62
2023-07-11T11:10:37.464Z,1004.66
2023-07-11T11:11:16.716Z,1004.65
2023-07-11T11:12:16.428Z,1004.64
2023-07-11T11:13:16.417Z,1004.56
2023-07-11T11:14:16.441Z,1004.54
2023-07-11T11:15:16.382Z,1004.51
2023-07-11T11:16:37.336Z,1004.51
2023-07-11T11:17:16.322Z,1004.45
2023-07-11T11:18:16.285Z,1004.51
2023-07-11T11:19:16.344Z,1004.49
2023-07-11T11:20:16.262Z,1004.48
2023-07-11T11:21:21.116Z,1004.48
2023-07-11T11:22:37.203Z,1004.44
2023-07-11T11:23:16.174Z,1004.47
2023-07-11T11:24:16.172Z,1004.40
2023-07-11T11:25:16.128Z,1004.43
2023-07-11T11:26:16.166Z,1004.38
2023-07-11T11:27:16.099Z,1004.37
2023-07-11T11:28:37.069Z,1004.34
2023-07-11T11:29:16.065Z,1004.28
2023-07-11T11:30:16.072Z,1004.27
2023-07-11T11:31:16.030Z,1004.28
2023-07-11T11:32:16.038Z,1004.26
2023-07-11T11:33:15.967Z,1004.24
2023-07-11T11:34:36.956Z,1004.24
2023-07-11T11:35:16.854Z,1004.24
2023-07-11T11:36:15.948Z,1004.25
2023-07-11T11:37:15.916Z,1004.24
2023-07-11T11:38:15.864Z,1004.24
2023-07-11T11:39:15.841Z,1004.20
2023-07-11T11:40:36.813Z,1004.16
2023-07-11T11:41:15.812Z,1004.17
2023-07-11T11:42:15.790Z,1004.17
2023-07-11T11:43:19.253Z,1004.13
2023-07-11T11:46:39.159Z,1004.13
2023-07-11T11:51:15.646Z,1004.10
2023-07-11T11:53:17.048Z,1004.07
2023-07-11T11:54:15.553Z,1004.04
2023-07-11T11:55:15.546Z,1004.03
2023-07-11T11:56:22.379Z,1004.08
2023-07-11T11:57:15.496Z,1004.04
2023-07-11T11:58:36.485Z,1004.00
2023-07-11T11:59:15.453Z,1003.99
2023-07-11T12:00:15.425Z,1004.04
2023-07-11T12:01:15.415Z,1003.96
2023-07-11T12:02:15.433Z,1003.99
2023-07-11T12:03:15.363Z,1003.89
2023-07-11T12:04:36.449Z,1003.95
2023-07-11T12:05:15.370Z,1003.87
2023-07-11T12:06:15.312Z,1003.89
2023-07-11T12:07:15.280Z,1003.87
2023-07-11T12:08:15.262Z,1003.87
2023-07-11T12:09:15.253Z,1003.90
2023-07-11T12:10:36.251Z,1003.88
2023-07-11T12:11:15.220Z,1003.87
2023-07-11T12:12:15.210Z,1003.87